Time;durP1;ratioP1;P1;durP2;ratioP2;P2;SDS_P1;SDS_P2;PMS_P1;PMS_P2;Temp;Humidity;BMP_temperature;BMP_pressure;BME280_temperature;BME280_humidity;BME280_pressure;Samples;Min_cycle;Max_cycle;Signal;HPM_P1;HPM_P2
2022/07/12 00:00:06;;;;;;;3.85;2.55;;;11.30;99.90;;;;;;5033173;28;20197;-82
2022/07/12 00:02:36;;;;;;;5.07;3.45;;;11.30;99.90;;;;;;5021509;28;20218;-80
2022/07/12 00:05:07;;;;;;;26.73;16.77;;;11.30;99.90;;;;;;5033727;28;20642;-84
2022/07/12 00:07:38;;;;;;;35.53;20.88;;;11.40;99.90;;;;;;5033062;28;20201;-85
2022/07/12 00:10:09;;;;;;;11.40;5.07;;;11.50;99.90;;;;;;5033857;28;20182;-82
2022/07/12 00:12:40;;;;;;;9.57;5.53;;;11.60;99.90;;;;;;5038580;28;20186;-82
2022/07/12 00:15:13;;;;;;;9.27;4.63;;;11.60;99.90;;;;;;5047034;28;20186;-81
2022/07/12 00:17:44;;;;;;;8.70;5.15;;;11.60;99.90;;;;;;5034259;28;20199;-82
2022/07/12 00:20:15;;;;;;;9.63;5.20;;;11.80;99.90;;;;;;5034054;28;20187;-86
2022/07/12 00:22:46;;;;;;;6.88;3.45;;;12.00;99.90;;;;;;5033811;28;20190;-85
2022/07/12 00:25:17;;;;;;;6.55;2.60;;;12.10;99.90;;;;;;5033807;28;20193;-82
2022/07/12 00:27:48;;;;;;;5.63;3.03;;;12.30;99.90;;;;;;5024767;28;20199;-85
2022/07/12 00:30:20;;;;;;;7.22;2.85;;;12.50;99.90;;;;;;5014178;28;20198;-82
2022/07/12 00:32:51;;;;;;;5.68;2.92;;;12.50;99.90;;;;;;5013998;28;20191;-83
2022/07/12 00:35:22;;;;;;;6.43;3.35;;;12.60;99.90;;;;;;5013785;28;20210;-83
2022/07/12 00:37:52;;;;;;;6.25;3.33;;;12.60;99.90;;;;;;5014892;28;20202;-84
2022/07/12 00:40:23;;;;;;;6.82;3.00;;;12.70;99.90;;;;;;5013792;28;20194;-82
2022/07/12 00:42:54;;;;;;;7.75;3.85;;;12.70;99.90;;;;;;5013702;28;20564;-83
2022/07/12 00:45:27;;;;;;;5.68;3.22;;;12.70;99.90;;;;;;5013609;28;20187;-80
2022/07/12 00:47:57;;;;;;;7.15;3.95;;;12.70;99.90;;;;;;5015943;28;20199;-86
2022/07/12 00:50:28;;;;;;;6.18;3.42;;;12.70;99.90;;;;;;5033281;28;20193;-82
2022/07/12 00:52:59;;;;;;;4.70;3.20;;;12.70;99.90;;;;;;5033439;28;20198;-84
2022/07/12 00:55:32;;;;;;;5.43;3.28;;;12.80;99.90;;;;;;5033322;28;20630;-80
2022/07/12 00:58:03;;;;;;;6.60;3.50;;;12.80;99.90;;;;;;5031001;28;20201;-84
2022/07/12 01:00:35;;;;;;;4.97;3.63;;;12.90;99.90;;;;;;5033163;28;20194;-83
2022/07/12 01:03:07;;;;;;;7.57;3.90;;;13.00;99.90;;;;;;5032547;28;20222;-83
2022/07/12 01:05:37;;;;;;;5.60;3.33;;;13.10;99.90;;;;;;5033038;28;20206;-85
2022/07/12 01:08:09;;;;;;;3.70;3.03;;;13.20;99.90;;;;;;5019965;28;20191;-82
2022/07/12 01:10:41;;;;;;;9.50;3.25;;;13.30;99.90;;;;;;5027873;28;20190;-82
2022/07/12 01:13:12;;;;;;;6.05;3.40;;;13.40;99.90;;;;;;5033077;28;20201;-80
2022/07/12 01:15:45;;;;;;;7.68;3.63;;;13.50;99.90;;;;;;5043810;28;20189;-81
2022/07/12 01:18:17;;;;;;;6.80;3.78;;;13.50;99.90;;;;;;5052783;28;20513;-79
2022/07/12 01:20:48;;;;;;;4.82;3.40;;;13.60;99.90;;;;;;5052871;28;20684;-79
2022/07/12 01:23:21;;;;;;;8.77;4.00;;;13.70;99.90;;;;;;5052895;28;20192;-76
2022/07/12 01:25:52;;;;;;;8.63;3.70;;;13.80;99.90;;;;;;5052596;28;20186;-76
2022/07/12 01:28:23;;;;;;;8.63;3.25;;;13.90;99.90;;;;;;5037974;28;20194;-76
2022/07/12 01:30:53;;;;;;;6.80;3.65;;;14.00;99.90;;;;;;5033063;28;20194;-85
2022/07/12 01:33:25;;;;;;;6.32;3.22;;;13.90;99.90;;;;;;5033053;28;20665;-81
2022/07/12 01:35:55;;;;;;;6.38;3.42;;;14.00;99.90;;;;;;5031800;28;20236;-83
2022/07/12 01:38:28;;;;;;;5.38;3.03;;;14.10;99.90;;;;;;5017060;28;20187;-82
2022/07/12 01:40:59;;;;;;;4.75;3.08;;;14.20;99.90;;;;;;5022758;28;20221;-86
2022/07/12 01:43:30;;;;;;;6.30;3.72;;;14.20;99.90;;;;;;5032890;28;20669;-81
2022/07/12 01:46:01;;;;;;;5.88;4.00;;;14.30;99.90;;;;;;5032207;28;20190;-82
2022/07/12 01:48:31;;;;;;;6.72;3.55;;;14.30;99.90;;;;;;5032799;28;20658;-83
2022/07/12 01:51:02;;;;;;;8.07;4.07;;;14.30;99.90;;;;;;5032768;28;20549;-84
2022/07/12 01:53:35;;;;;;;7.18;3.95;;;14.30;99.90;;;;;;5032797;28;20194;-84
2022/07/12 01:56:06;;;;;;;5.72;3.60;;;14.40;99.90;;;;;;5033984;28;20201;-82
2022/07/12 01:58:37;;;;;;;7.13;4.07;;;14.40;99.90;;;;;;5036399;28;20190;-80
2022/07/12 02:01:08;;;;;;;8.45;4.30;;;14.60;99.90;;;;;;5036516;28;20261;-83
2022/07/12 02:03:39;;;;;;;6.93;4.00;;;14.70;99.90;;;;;;5035629;28;20226;-84
2022/07/12 02:06:09;;;;;;;9.63;4.30;;;14.70;99.90;;;;;;5036297;28;20634;-86
2022/07/12 02:08:45;;;;;;;10.70;4.07;;;14.80;99.90;;;;;;5036393;28;20638;-83
2022/07/12 02:11:15;;;;;;;9.60;4.60;;;14.90;99.90;;;;;;5036113;28;20193;-82
2022/07/12 02:13:46;;;;;;;8.93;4.10;;;14.90;99.90;;;;;;5036296;28;20196;-82
2022/07/12 02:16:17;;;;;;;5.82;4.25;;;15.00;99.90;;;;;;5036138;28;20201;-80
2022/07/12 02:18:47;;;;;;;8.50;4.20;;;15.00;99.90;;;;;;5036937;28;20190;-81
2022/07/12 02:21:18;;;;;;;8.57;4.10;;;15.10;99.90;;;;;;5039038;28;20689;-82
2022/07/12 02:23:50;;;;;;;7.43;3.83;;;15.20;99.90;;;;;;5036679;28;20622;-80
2022/07/12 02:26:22;;;;;;;11.13;4.13;;;15.20;99.90;;;;;;5035897;28;20198;-81
2022/07/12 02:28:52;;;;;;;7.07;3.90;;;15.30;99.90;;;;;;5035609;28;20240;-85
2022/07/12 02:31:23;;;;;;;10.05;4.07;;;15.40;99.90;;;;;;5031914;28;20194;-81
2022/07/12 02:33:54;;;;;;;6.05;3.38;;;15.50;99.90;;;;;;5036001;28;20197;-83
2022/07/12 02:36:24;;;;;;;6.70;3.63;;;15.60;99.90;;;;;;5035637;28;20762;-81
2022/07/12 02:38:57;;;;;;;6.28;3.17;;;15.70;99.90;;;;;;5033941;28;20186;-83
2022/07/12 02:41:27;;;;;;;6.22;3.65;;;15.70;99.90;;;;;;5036151;28;20241;-84
2022/07/12 02:43:58;;;;;;;6.47;3.60;;;15.80;99.90;;;;;;5036208;28;20195;-81
2022/07/12 02:46:29;;;;;;;7.55;3.15;;;15.80;99.90;;;;;;5035759;28;20563;-81
2022/07/12 02:48:59;;;;;;;7.70;3.78;;;15.80;99.90;;;;;;5033983;28;20649;-82
2022/07/12 02:51:30;;;;;;;5.90;3.33;;;15.90;99.90;;;;;;5034265;28;20190;-81
2022/07/12 02:54:03;;;;;;;6.10;3.25;;;15.90;99.90;;;;;;5032208;28;20572;-80
2022/07/12 02:56:34;;;;;;;6.28;3.40;;;15.90;99.90;;;;;;5035621;28;20638;-82
2022/07/12 02:59:04;;;;;;;6.10;3.28;;;15.90;99.90;;;;;;5035295;28;20201;-83
2022/07/12 03:01:35;;;;;;;5.75;2.85;;;15.90;99.90;;;;;;5035023;28;20222;-82
2022/07/12 03:04:06;;;;;;;4.70;2.80;;;15.90;99.90;;;;;;5035403;28;20222;-81
2022/07/12 03:06:37;;;;;;;5.43;2.50;;;15.80;99.90;;;;;;5035262;28;20191;-83
2022/07/12 03:09:09;;;;;;;8.98;2.65;;;15.70;99.90;;;;;;5034981;28;20198;-83
2022/07/12 03:11:40;;;;;;;4.95;2.80;;;15.60;99.90;;;;;;5035243;28;20598;-80
2022/07/12 03:14:10;;;;;;;6.05;2.78;;;15.50;99.90;;;;;;5035068;28;20528;-80
2022/07/12 03:16:41;;;;;;;4.57;2.67;;;15.50;99.90;;;;;;5035035;28;20550;-81
2022/07/12 03:19:12;;;;;;;6.90;3.00;;;15.50;99.90;;;;;;5034951;28;20198;-80
2022/07/12 03:21:42;;;;;;;4.43;2.47;;;15.60;99.90;;;;;;5034695;28;20218;-80
2022/07/12 03:24:15;;;;;;;5.88;2.67;;;15.60;99.90;;;;;;5035058;28;20197;-80
2022/07/12 03:26:45;;;;;;;5.22;2.40;;;15.60;99.90;;;;;;5034797;28;20194;-80
2022/07/12 03:29:17;;;;;;;3.33;2.00;;;15.60;99.90;;;;;;5035325;28;20205;-80
2022/07/12 03:31:47;;;;;;;5.15;2.42;;;15.60;99.90;;;;;;5035215;28;20195;-82
2022/07/12 03:34:18;;;;;;;4.57;2.00;;;15.60;99.90;;;;;;5035072;28;20213;-82
2022/07/12 03:36:49;;;;;;;6.22;2.08;;;15.60;99.90;;;;;;5034608;28;20234;-82
2022/07/12 03:39:21;;;;;;;5.55;1.85;;;15.50;99.90;;;;;;5034582;28;20193;-80
2022/07/12 03:41:52;;;;;;;4.10;1.70;;;15.50;99.90;;;;;;5034359;28;20214;-79
2022/07/12 03:44:22;;;;;;;4.18;2.30;;;15.40;99.90;;;;;;5034220;28;20197;-81
2022/07/12 03:46:53;;;;;;;3.05;1.98;;;15.40;99.90;;;;;;5034527;28;20198;-80
2022/07/12 03:49:24;;;;;;;5.93;1.67;;;15.40;99.90;;;;;;5034438;28;20194;-82
2022/07/12 03:51:54;;;;;;;2.90;2.08;;;15.40;99.90;;;;;;5034304;28;20195;-81
2022/07/12 03:54:27;;;;;;;3.50;1.70;;;15.50;99.90;;;;;;5034348;28;20201;-81
2022/07/12 03:57:16;;;;;;;3.95;1.60;;;15.50;99.90;;;;;;5034316;28;20197;-82
2022/07/12 03:59:47;;;;;;;3.33;2.08;;;15.60;99.90;;;;;;5034338;28;20201;-82
2022/07/12 04:02:18;;;;;;;3.80;2.05;;;15.70;99.90;;;;;;5033514;28;20702;-80
2022/07/12 04:04:49;;;;;;;2.90;1.73;;;15.80;99.90;;;;;;5033745;28;20197;-81
2022/07/12 04:07:20;;;;;;;4.70;1.90;;;15.90;99.90;;;;;;5033934;28;20195;-82
2022/07/12 04:09:52;;;;;;;1.80;1.40;;;15.90;99.90;;;;;;5033898;28;20609;-80
2022/07/12 04:12:23;;;;;;;2.60;1.50;;;16.00;99.90;;;;;;5033734;28;20206;-82
2022/07/12 04:14:53;;;;;;;2.95;1.60;;;15.90;99.90;;;;;;5032067;28;20198;-82
2022/07/12 04:17:24;;;;;;;2.45;1.70;;;15.80;99.90;;;;;;5033207;28;20199;-81
2022/07/12 04:19:55;;;;;;;4.55;1.55;;;15.70;99.90;;;;;;5032386;28;20657;-81
2022/07/12 04:22:26;;;;;;;4.05;1.65;;;15.60;99.90;;;;;;5033907;28;20668;-79
2022/07/12 04:24:58;;;;;;;2.95;1.52;;;15.50;99.90;;;;;;5033276;28;20186;-80
2022/07/12 04:27:29;;;;;;;2.88;1.70;;;15.50;99.90;;;;;;5021733;28;20566;-79
2022/07/12 04:30:00;;;;;;;4.55;1.70;;;15.60;99.90;;;;;;5027733;28;20187;-81
2022/07/12 04:32:30;;;;;;;4.85;1.30;;;15.70;99.90;;;;;;5033451;28;20194;-79
2022/07/12 04:35:01;;;;;;;4.00;1.48;;;15.80;99.90;;;;;;5033459;28;20646;-79
2022/07/12 04:37:32;;;;;;;1.98;1.30;;;15.90;99.90;;;;;;5032591;28;20737;-80
2022/07/12 04:40:04;;;;;;;4.82;1.30;;;15.80;99.90;;;;;;5033368;28;20205;-81
2022/07/12 04:42:35;;;;;;;4.22;1.13;;;15.70;99.90;;;;;;5017264;28;20237;-81
2022/07/12 04:45:06;;;;;;;6.60;3.03;;;15.50;99.90;;;;;;5032722;28;20201;-81
2022/07/12 04:47:39;;;;;;;3.42;2.05;;;15.40;99.90;;;;;;5032847;28;20186;-81
2022/07/12 04:50:11;;;;;;;17.50;10.40;;;15.30;99.90;;;;;;5031696;28;20194;-80
2022/07/12 04:52:41;;;;;;;16.95;10.45;;;15.30;99.90;;;;;;5036445;28;20197;-78
2022/07/12 04:55:14;;;;;;;9.80;4.63;;;15.20;99.90;;;;;;5032878;28;20190;-80
2022/07/12 04:57:45;;;;;;;11.93;5.65;;;15.30;99.90;;;;;;5022603;28;20579;-76
2022/07/12 05:00:16;;;;;;;2.65;1.70;;;15.30;99.90;;;;;;5029047;28;20535;-77
2022/07/12 05:02:47;;;;;;;4.00;1.40;;;15.40;99.90;;;;;;5032932;28;20230;-79
2022/07/12 05:05:17;;;;;;;2.17;1.23;;;15.50;99.90;;;;;;5031775;28;20193;-79
2022/07/12 05:07:48;;;;;;;3.28;1.58;;;15.70;99.90;;;;;;5024088;28;20198;-81
2022/07/12 05:10:20;;;;;;;3.47;1.00;;;15.80;99.90;;;;;;5032970;28;20190;-80
2022/07/12 05:12:51;;;;;;;2.17;0.95;;;15.80;99.90;;;;;;5032729;28;20570;-78
2022/07/12 05:15:22;;;;;;;1.50;0.95;;;15.80;99.90;;;;;;5031548;28;20562;-78
2022/07/12 05:17:53;;;;;;;2.10;0.70;;;15.80;99.90;;;;;;5031640;28;20194;-79
2022/07/12 05:20:23;;;;;;;2.30;1.20;;;15.80;99.90;;;;;;5031124;28;20194;-79
2022/07/12 05:22:54;;;;;;;2.65;0.70;;;15.70;99.90;;;;;;5031106;28;20217;-80
2022/07/12 05:25:27;;;;;;;1.90;0.77;;;15.60;99.90;;;;;;5026853;28;20187;-80
2022/07/12 05:27:57;;;;;;;1.42;0.60;;;15.50;99.90;;;;;;5031952;28;20190;-80
2022/07/12 05:30:28;;;;;;;1.38;0.80;;;15.40;99.90;;;;;;5032803;28;20213;-81
2022/07/12 05:32:59;;;;;;;1.00;0.73;;;15.30;99.90;;;;;;5028532;28;20187;-80
2022/07/12 05:35:29;;;;;;;1.17;0.63;;;15.20;99.90;;;;;;5027314;28;20205;-79
2022/07/12 05:38:01;;;;;;;1.13;0.70;;;15.10;99.90;;;;;;5036324;28;20202;-78
2022/07/12 05:40:33;;;;;;;2.05;0.80;;;15.00;99.90;;;;;;5035828;28;20194;-81
2022/07/12 05:43:04;;;;;;;1.45;0.77;;;15.00;99.90;;;;;;5036979;28;20214;-80
2022/07/12 05:45:35;;;;;;;2.78;0.82;;;14.90;99.90;;;;;;5036092;28;20278;-75
2022/07/12 05:48:06;;;;;;;0.70;0.50;;;14.90;99.90;;;;;;5031862;28;20182;-80
2022/07/12 05:50:37;;;;;;;0.95;0.70;;;14.80;99.90;;;;;;5031721;28;20197;-81
2022/07/12 05:53:24;;;;;;;2.15;0.60;;;14.70;99.90;;;;;;5032298;28;20634;-80
2022/07/12 05:55:57;;;;;;;1.30;0.57;;;14.70;99.90;;;;;;5030910;28;20186;-78
2022/07/12 05:58:27;;;;;;;0.80;0.55;;;14.60;99.90;;;;;;5036015;28;20186;-80
2022/07/12 06:00:58;;;;;;;1.77;0.70;;;14.60;99.90;;;;;;5035528;28;20198;-80
2022/07/12 06:03:29;;;;;;;2.17;0.60;;;14.50;99.90;;;;;;5034875;28;20234;-78
2022/07/12 06:05:59;;;;;;;0.88;0.60;;;14.40;99.90;;;;;;5035040;28;20187;-79
2022/07/12 06:08:30;;;;;;;0.70;0.60;;;14.30;99.90;;;;;;5032577;28;20186;-78
2022/07/12 06:11:03;;;;;;;1.85;0.88;;;14.30;99.90;;;;;;5032222;28;20198;-80
2022/07/12 06:13:33;;;;;;;1.60;0.82;;;14.30;99.90;;;;;;5033089;28;20205;-79
2022/07/12 06:16:05;;;;;;;1.27;0.73;;;14.20;99.90;;;;;;5033524;28;20183;-79
2022/07/12 06:18:38;;;;;;;0.77;0.77;;;14.20;99.90;;;;;;5033741;28;20194;-80
2022/07/12 06:21:09;;;;;;;2.53;1.00;;;14.30;99.90;;;;;;5030880;28;20202;-80
2022/07/12 06:23:39;;;;;;;4.15;0.80;;;14.20;99.90;;;;;;5026447;28;20582;-79
2022/07/12 06:26:12;;;;;;;3.25;1.00;;;14.10;99.90;;;;;;5035374;28;20209;-76
2022/07/12 06:28:43;;;;;;;1.80;0.75;;;14.10;99.90;;;;;;5035098;28;20201;-78
2022/07/12 06:31:13;;;;;;;2.45;0.90;;;13.90;99.90;;;;;;5030277;28;20183;-81
2022/07/12 06:33:44;;;;;;;1.70;0.70;;;13.80;99.90;;;;;;5035186;28;20298;-79
2022/07/12 06:36:15;;;;;;;1.98;0.82;;;13.70;99.90;;;;;;5035216;28;20619;-79
2022/07/12 06:38:46;;;;;;;0.98;0.70;;;13.50;99.90;;;;;;5035035;28;20197;-78
2022/07/12 06:41:18;;;;;;;2.08;0.88;;;13.40;99.90;;;;;;5033707;28;20187;-80
2022/07/12 06:43:49;;;;;;;1.55;0.70;;;13.30;99.90;;;;;;5034685;28;20222;-77
2022/07/12 06:46:20;;;;;;;3.53;1.50;;;13.30;99.90;;;;;;5034689;28;20187;-79
2022/07/12 06:48:50;;;;;;;3.90;1.10;;;13.20;99.90;;;;;;5034740;28;20191;-78
2022/07/12 06:51:21;;;;;;;0.88;0.80;;;13.20;99.90;;;;;;5028216;28;20186;-76
2022/07/12 06:53:52;;;;;;;1.83;1.20;;;13.10;99.90;;;;;;5034219;28;20190;-76
2022/07/12 06:56:24;;;;;;;2.45;1.50;;;12.90;99.90;;;;;;5040370;28;20543;-76
2022/07/12 06:58:55;;;;;;;3.28;1.15;;;12.90;99.90;;;;;;5028769;28;20191;-76
2022/07/12 07:01:25;;;;;;;2.78;1.20;;;12.80;99.90;;;;;;5034166;28;20190;-75
2022/07/12 07:03:56;;;;;;;2.80;1.10;;;12.60;99.90;;;;;;5034151;28;20229;-77
2022/07/12 07:06:27;;;;;;;4.47;1.67;;;12.80;99.90;;;;;;5033070;28;20186;-77
2022/07/12 07:08:58;;;;;;;3.67;2.17;;;12.70;99.90;;;;;;5030640;28;20202;-75
2022/07/12 07:11:30;;;;;;;9.48;2.10;;;12.70;99.90;;;;;;5035089;28;20202;-75
2022/07/12 07:14:01;;;;;;;3.40;1.98;;;12.70;99.90;;;;;;5034725;28;20187;-75
2022/07/12 07:16:31;;;;;;;83.10;43.72;;;12.70;99.90;;;;;;5034958;28;20197;-80
2022/07/12 07:19:02;;;;;;;372.15;189.90;;;12.60;99.90;;;;;;5033380;28;20272;-79
2022/07/12 07:21:33;;;;;;;241.15;124.60;;;12.60;99.90;;;;;;5031906;28;20195;-78
2022/07/12 07:24:03;;;;;;;7.28;3.85;;;12.60;99.90;;;;;;5029393;28;20578;-78
2022/07/12 07:26:36;;;;;;;3.13;1.35;;;12.50;99.90;;;;;;5031649;28;20190;-80
2022/07/12 07:31:53;;;;;;;4.80;2.75;;;12.30;99.90;;;;;;5034200;28;20212;-76
2022/07/12 07:34:24;;;;;;;4.25;2.58;;;12.20;99.90;;;;;;5032649;28;20186;-79
2022/07/12 07:36:55;;;;;;;7.65;3.95;;;12.20;99.90;;;;;;5033676;28;20253;-78
2022/07/12 07:39:25;;;;;;;8.23;4.65;;;12.20;99.90;;;;;;5034133;28;20206;-77
2022/07/12 07:41:58;;;;;;;9.48;5.10;;;12.20;99.90;;;;;;5033205;28;20642;-79
2022/07/12 07:44:29;;;;;;;8.38;5.00;;;12.20;99.90;;;;;;5033446;28;20206;-79
2022/07/12 07:46:59;;;;;;;9.88;5.10;;;12.20;99.90;;;;;;5027338;28;20194;-78
2022/07/12 07:49:30;;;;;;;8.93;5.07;;;12.10;99.90;;;;;;5029854;28;20214;-79
2022/07/12 07:52:01;;;;;;;7.78;4.65;;;12.10;99.90;;;;;;5033861;28;20187;-79
2022/07/12 07:54:31;;;;;;;10.02;4.75;;;12.10;99.90;;;;;;5022845;28;20205;-79
2022/07/12 07:57:04;;;;;;;8.40;4.20;;;12.00;99.90;;;;;;5033009;28;20755;-79
2022/07/12 07:59:42;;;;;;;9.13;4.22;;;11.90;99.90;;;;;;5034393;28;20225;-79
2022/07/12 08:02:15;;;;;;;8.15;3.63;;;11.90;99.90;;;;;;5033985;28;20210;-80
2022/07/12 08:04:46;;;;;;;8.05;4.20;;;11.90;99.90;;;;;;5031594;28;20221;-80
2022/07/12 08:07:16;;;;;;;7.43;3.80;;;11.90;99.90;;;;;;5030179;28;20198;-79
2022/07/12 08:09:47;;;;;;;6.78;4.35;;;11.90;99.90;;;;;;5034204;28;20190;-79
2022/07/12 08:12:20;;;;;;;8.15;3.50;;;11.90;99.90;;;;;;5033927;28;20190;-79
2022/07/12 08:14:50;;;;;;;9.68;5.45;;;11.90;99.90;;;;;;5020976;28;20561;-80
2022/07/12 08:17:21;;;;;;;10.32;5.70;;;11.90;99.90;;;;;;5014184;28;20217;-79
2022/07/12 08:19:52;;;;;;;9.00;5.00;;;11.90;99.90;;;;;;5014380;28;20191;-79
2022/07/12 08:22:22;;;;;;;11.98;6.15;;;11.90;99.90;;;;;;5014301;28;20198;-79
2022/07/12 08:24:53;;;;;;;10.82;6.32;;;11.80;99.90;;;;;;5027177;28;20221;-79
2022/07/12 08:27:25;;;;;;;8.82;5.65;;;11.80;99.90;;;;;;5033486;28;20202;-78
2022/07/12 08:29:56;;;;;;;8.55;4.70;;;11.80;99.90;;;;;;5033844;28;20198;-80
2022/07/12 08:32:27;;;;;;;6.75;4.30;;;11.80;99.90;;;;;;5025824;28;20190;-79
2022/07/12 08:34:58;;;;;;;8.02;4.15;;;11.80;99.90;;;;;;5017817;28;20202;-80
2022/07/12 08:37:28;;;;;;;10.10;4.45;;;11.80;99.90;;;;;;5013752;28;20246;-79
2022/07/12 08:39:59;;;;;;;11.07;4.72;;;11.70;99.90;;;;;;5013966;28;20195;-80
2022/07/12 08:42:32;;;;;;;8.07;4.60;;;11.80;99.90;;;;;;5028922;28;20190;-80
2022/07/12 08:45:02;;;;;;;8.18;4.47;;;11.80;99.90;;;;;;5025670;28;20242;-80
2022/07/12 08:47:33;;;;;;;5.90;3.90;;;11.80;99.90;;;;;;5022808;28;20641;-80
2022/07/12 08:50:19;;;;;;;9.30;4.80;;;11.70;99.90;;;;;;5033482;28;20195;-80
2022/07/12 08:52:50;;;;;;;8.60;3.95;;;11.70;99.90;;;;;;5030478;28;20673;-81
2022/07/12 08:55:26;;;;;;;8.05;4.05;;;11.70;99.90;;;;;;5013756;28;20203;-80
2022/07/12 08:58:00;;;;;;;10.10;4.60;;;11.80;99.90;;;;;;5013547;28;20199;-80
2022/07/12 09:00:31;;;;;;;9.55;5.10;;;11.70;99.90;;;;;;5032186;28;20198;-80
2022/07/12 09:03:03;;;;;;;8.75;4.63;;;11.60;99.90;;;;;;5032046;28;20250;-76
2022/07/12 09:05:34;;;;;;;7.80;4.30;;;11.70;99.90;;;;;;5050236;28;20202;-79
2022/07/12 09:08:09;;;;;;;7.20;4.45;;;11.70;99.90;;;;;;5039449;28;20198;-80
2022/07/12 09:10:55;;;;;;;9.35;5.28;;;11.70;99.90;;;;;;5019493;28;20186;-80
2022/07/12 09:13:46;;;;;;;10.63;5.72;;;11.70;99.90;;;;;;5013606;28;20199;-80
2022/07/12 09:16:20;;;;;;;9.82;5.22;;;11.70;99.90;;;;;;5015627;28;20210;-80
2022/07/12 09:18:52;;;;;;;8.95;5.20;;;11.70;99.90;;;;;;5032844;28;20182;-80
2022/07/12 09:21:27;;;;;;;10.07;4.93;;;11.60;99.90;;;;;;5033220;28;20665;-79
2022/07/12 09:23:59;;;;;;;9.15;4.70;;;11.60;99.90;;;;;;5033365;28;20221;-80
2022/07/12 09:26:34;;;;;;;10.02;5.55;;;11.60;99.90;;;;;;5029534;28;20191;-79
2022/07/12 09:29:11;;;;;;;9.73;6.07;;;11.50;99.90;;;;;;5016265;28;20185;-80
2022/07/12 09:37:26;;;;;;;10.52;6.18;;;11.40;99.90;;;;;;5032988;28;20237;-78
2022/07/12 09:39:57;;;;;;;9.93;5.90;;;11.40;99.90;;;;;;5032726;28;20559;-80
2022/07/12 09:42:29;;;;;;;11.15;5.88;;;11.40;99.90;;;;;;5032984;28;20194;-80
2022/07/12 09:45:01;;;;;;;12.75;6.55;;;11.40;99.90;;;;;;5017822;28;20225;-80
2022/07/12 09:47:35;;;;;;;14.52;6.55;;;11.30;99.90;;;;;;5013264;28;20199;-79
2022/07/12 09:50:07;;;;;;;10.57;6.35;;;11.30;99.90;;;;;;5013244;28;20188;-80
2022/07/12 09:52:40;;;;;;;10.10;6.28;;;11.30;99.90;;;;;;5013179;28;20653;-80
2022/07/12 09:55:14;;;;;;;11.45;6.47;;;11.40;99.90;;;;;;5014122;28;20199;-81
2022/07/12 09:57:46;;;;;;;11.02;6.32;;;11.40;99.90;;;;;;5013025;28;20569;-80
2022/07/12 10:00:17;;;;;;;13.48;6.80;;;11.40;99.90;;;;;;5013189;28;20199;-80
2022/07/12 10:02:52;;;;;;;15.18;6.88;;;11.40;99.90;;;;;;5024132;28;20593;-80
2022/07/12 10:05:26;;;;;;;11.98;6.20;;;11.40;99.90;;;;;;5013026;28;20227;-80
2022/07/12 10:07:58;;;;;;;12.77;6.72;;;11.40;99.90;;;;;;5018302;28;20223;-81
2022/07/12 10:10:29;;;;;;;11.10;6.40;;;11.40;99.90;;;;;;5032434;28;20559;-80
2022/07/12 10:13:01;;;;;;;12.55;6.88;;;11.40;99.90;;;;;;5032072;28;20198;-80
2022/07/12 10:15:33;;;;;;;13.38;7.03;;;11.40;99.90;;;;;;5012999;28;20616;-80
2022/07/12 10:18:07;;;;;;;10.27;6.68;;;11.40;99.90;;;;;;5015578;28;20190;-80
2022/07/12 10:20:44;;;;;;;10.85;7.03;;;11.40;99.90;;;;;;5016515;28;20222;-80
2022/07/12 10:23:34;;;;;;;11.02;6.30;;;11.40;99.90;;;;;;5034096;28;20224;-80
2022/07/12 10:26:19;;;;;;;10.57;6.32;;;11.40;99.90;;;;;;5035811;28;20194;-80
2022/07/12 10:29:02;;;;;;;13.13;6.60;;;11.40;99.90;;;;;;5020450;28;20206;-80
2022/07/12 10:31:35;;;;;;;12.23;7.07;;;11.40;99.90;;;;;;5016286;28;20202;-78
2022/07/12 10:34:24;;;;;;;9.65;6.68;;;11.40;99.90;;;;;;5016288;28;20199;-80
2022/07/12 10:37:12;;;;;;;13.43;6.72;;;11.40;99.90;;;;;;5024071;28;20240;-77
2022/07/12 10:39:43;;;;;;;15.75;7.47;;;11.50;99.90;;;;;;5027446;28;20213;-80
2022/07/12 10:42:20;;;;;;;13.00;7.25;;;11.50;99.90;;;;;;5035965;28;20277;-77
2022/07/12 10:44:51;;;;;;;14.90;7.88;;;11.50;99.90;;;;;;5035882;28;20220;-77
2022/07/12 10:47:22;;;;;;;13.43;8.02;;;11.50;99.90;;;;;;5033126;28;20191;-78
2022/07/12 10:49:55;;;;;;;13.40;7.80;;;11.50;99.90;;;;;;5038269;28;20189;-80
2022/07/12 10:52:30;;;;;;;15.15;7.97;;;11.60;99.90;;;;;;5055445;28;20194;-80
2022/07/12 10:55:21;;;;;;;14.75;7.85;;;11.60;99.90;;;;;;5041058;28;20197;-78
2022/07/12 10:57:54;;;;;;;14.77;8.70;;;11.60;99.90;;;;;;5035017;28;20199;-80
2022/07/12 11:00:24;;;;;;;13.30;8.40;;;11.50;99.90;;;;;;5035769;28;20197;-79
2022/07/12 11:02:55;;;;;;;15.70;9.13;;;11.50;99.90;;;;;;5035129;28;20222;-78
2022/07/12 11:05:31;;;;;;;15.35;8.70;;;11.50;99.90;;;;;;5034608;28;20206;-80
2022/07/12 11:08:02;;;;;;;14.43;8.13;;;11.50;99.90;;;;;;5028297;28;20186;-80
2022/07/12 11:10:32;;;;;;;15.30;8.85;;;11.50;99.90;;;;;;5035208;28;20193;-79
2022/07/12 11:13:03;;;;;;;17.40;9.65;;;11.50;99.90;;;;;;5035290;28;20206;-80
2022/07/12 11:15:34;;;;;;;13.50;9.27;;;11.60;99.90;;;;;;5035565;28;20194;-79
2022/07/12 11:18:05;;;;;;;16.20;9.43;;;11.50;99.90;;;;;;5035378;28;20225;-79
2022/07/12 11:20:38;;;;;;;14.45;9.10;;;11.50;99.90;;;;;;5034354;28;20190;-78
2022/07/12 11:23:08;;;;;;;14.65;9.55;;;11.50;99.90;;;;;;5035074;28;20194;-77
2022/07/12 11:25:39;;;;;;;17.27;10.25;;;11.50;99.90;;;;;;5034753;28;20681;-80
2022/07/12 11:28:12;;;;;;;15.27;10.20;;;11.50;99.90;;;;;;5033682;28;20190;-77
2022/07/12 11:30:51;;;;;;;20.00;10.27;;;11.40;99.90;;;;;;5035164;28;20194;-79
2022/07/12 11:33:27;;;;;;;17.55;10.27;;;11.40;99.90;;;;;;5035055;28;20198;-79
2022/07/12 11:36:00;;;;;;;18.45;10.48;;;11.50;99.90;;;;;;5034440;28;20237;-80
2022/07/12 11:38:35;;;;;;;15.48;10.05;;;11.50;99.90;;;;;;5034745;28;20220;-80
2022/07/12 11:41:06;;;;;;;20.23;10.73;;;11.50;99.90;;;;;;5034827;28;20240;-80
2022/07/12 11:43:41;;;;;;;15.48;10.02;;;11.50;99.90;;;;;;5034564;28;20194;-81
2022/07/12 11:46:12;;;;;;;19.63;10.95;;;11.40;99.90;;;;;;5035019;28;20660;-81
2022/07/12 11:48:45;;;;;;;18.02;10.95;;;11.50;99.90;;;;;;5034585;28;20558;-81
2022/07/12 11:51:18;;;;;;;20.00;11.48;;;11.50;99.90;;;;;;5034464;28;20217;-80
2022/07/12 11:53:55;;;;;;;21.83;11.30;;;11.50;99.90;;;;;;5034164;28;20237;-81
2022/07/12 11:56:33;;;;;;;18.70;11.18;;;11.40;99.90;;;;;;5034289;28;20229;-81
2022/07/12 11:59:06;;;;;;;20.70;10.82;;;11.50;99.90;;;;;;5030428;28;20186;-81
2022/07/12 12:01:36;;;;;;;16.17;10.63;;;11.40;99.90;;;;;;5033796;28;20217;-81
2022/07/12 12:04:13;;;;;;;18.02;10.90;;;11.40;99.90;;;;;;5033938;28;20600;-81
2022/07/12 12:06:46;;;;;;;17.02;11.13;;;11.40;99.90;;;;;;5033747;28;20194;-81
2022/07/12 12:09:24;;;;;;;19.20;10.52;;;11.40;99.90;;;;;;5034128;28;20251;-81
2022/07/12 12:11:54;;;;;;;17.15;10.18;;;11.40;99.90;;;;;;5019224;28;20183;-81
2022/07/12 12:14:25;;;;;;;15.18;9.95;;;11.40;99.90;;;;;;5032898;28;20684;-78
2022/07/12 12:16:56;;;;;;;16.45;10.32;;;11.40;99.90;;;;;;5040980;28;20190;-80
2022/07/12 12:19:26;;;;;;;15.20;9.20;;;11.40;99.90;;;;;;5033745;28;20186;-82
2022/07/12 12:21:59;;;;;;;15.27;9.43;;;11.40;99.90;;;;;;5033719;28;20187;-81
2022/07/12 12:24:30;;;;;;;16.75;9.45;;;11.40;99.90;;;;;;5033120;28;20203;-82
2022/07/12 12:27:00;;;;;;;16.98;9.32;;;11.30;99.90;;;;;;5033601;28;20194;-82
2022/07/12 12:29:45;;;;;;;14.23;9.32;;;11.30;99.90;;;;;;5033905;28;20650;-80
2022/07/12 12:32:21;;;;;;;15.45;8.30;;;11.30;99.90;;;;;;5027868;28;20238;-80
2022/07/12 12:35:11;;;;;;;14.07;7.75;;;11.30;99.90;;;;;;5033162;28;20661;-78
2022/07/12 12:37:44;;;;;;;14.23;7.78;;;11.30;99.90;;;;;;5028995;28;20582;-81
2022/07/12 12:40:20;;;;;;;10.38;7.20;;;11.30;99.90;;;;;;5032563;28;20208;-78
2022/07/12 12:42:51;;;;;;;13.27;7.25;;;11.30;99.90;;;;;;5033202;28;20224;-80
2022/07/12 12:45:23;;;;;;;11.07;7.18;;;11.30;99.90;;;;;;5033248;28;20210;-80
2022/07/12 12:47:58;;;;;;;10.80;6.18;;;11.30;99.90;;;;;;5032762;28;20657;-80
2022/07/12 12:50:42;;;;;;;10.98;6.18;;;11.30;99.90;;;;;;5032792;28;20186;-79
2022/07/12 12:53:18;;;;;;;11.02;6.30;;;11.30;99.90;;;;;;5033085;28;20242;-79
2022/07/12 12:55:50;;;;;;;11.43;6.30;;;11.30;99.90;;;;;;5035432;28;20559;-80
2022/07/12 12:58:22;;;;;;;9.45;6.13;;;11.20;99.90;;;;;;5031992;28;20537;-78
2022/07/12 13:00:54;;;;;;;10.43;5.95;;;11.30;99.90;;;;;;5032907;28;20204;-78
2022/07/12 13:03:26;;;;;;;12.55;6.20;;;11.20;99.90;;;;;;5032873;28;20271;-78
2022/07/12 13:05:57;;;;;;;9.30;5.38;;;11.20;99.90;;;;;;5031827;28;20245;-81
2022/07/12 13:08:30;;;;;;;9.45;5.90;;;11.20;99.90;;;;;;5032557;28;20195;-79
2022/07/12 13:13:48;;;;;;;8.35;5.50;;;11.20;99.90;;;;;;5032350;28;20188;-80
2022/07/12 13:16:18;;;;;;;9.90;5.50;;;11.20;99.90;;;;;;5038706;28;20189;-81
2022/07/12 13:18:49;;;;;;;10.05;6.00;;;11.20;99.90;;;;;;5049634;28;20190;-81